Asian Captain — D7AQ — position and weather

sailwx.info

Track history (hours):
 
Tides and Currents Weather Stations Pressure Air Temp Water Temp Dewpoint Dewpoint Depression Visibility Wind Speed Wind Dir Waves Ship Positions

Asian Captain

Last reported at 2017-Nov-09 17:23 UTC. Time now 2017-Nov-20 09:52 UTC.
Position S 30°22' E 030°58'.
Warning: this ship's position is 10 days out of date.

Length 229 m; draft 9.2 m.

Type: Cargo ship. MMSI: 440371000.

Date/timePositionNaut miles runAvg speedWind from/ knotsBaromVisibWave heightAir tempDewpointWater temp
2017-Nov-09 17:23S 30°22' E 030°58'719.4
2017-Nov-09 17:00S 30°16' E 031°03'917.4
2017-Nov-09 16:30S 30°08' E 031°07'816.3
2017-Nov-09 16:00S 30°00' E 031°10'714.9
2017-Nov-09 15:30S 29°53' E 031°08'5 9.1
2017-Nov-09 15:00S 29°52' E 031°03'1 2.6
2017-Nov-09 14:30S 29°52' E 031°02'0 0.0
2017-Nov-09 13:59S 29°52' E 031°02'0 0.0
2017-Nov-09 13:29S 29°52' E 031°02'0 0.0
2017-Nov-09 12:59S 29°52' E 031°02'0 0.0
2017-Nov-09 12:29S 29°52' E 031°02'0 0.0
2017-Nov-09 11:59S 29°52' E 031°02'0 0.0
2017-Nov-09 11:29S 29°52' E 031°02'0 0.0
2017-Nov-09 10:59S 29°52' E 031°02'0 0.0
2017-Nov-09 10:29S 29°52' E 031°02'0 0.0
2017-Nov-09 09:59S 29°52' E 031°02'0 0.0
2017-Nov-09 09:29S 29°52' E 031°02'0 0.0
2017-Nov-09 08:59S 29°52' E 031°02'0 0.0
2017-Nov-09 08:29S 29°52' E 031°02'0 0.0
2017-Nov-09 07:59S 29°52' E 031°02'0 0.0
2017-Nov-09 07:29S 29°52' E 031°02'0 0.0
2017-Nov-09 06:59S 29°52' E 031°02'0 0.0
2017-Nov-09 06:20S 29°52' E 031°02'0 0.0
2017-Nov-09 05:59S 29°52' E 031°02'0 0.0
2017-Nov-09 05:26S 29°52' E 031°02'0 0.0
2017-Nov-09 04:59S 29°52' E 031°02'0 0.0
2017-Nov-09 04:29S 29°52' E 031°02'0 0.0
2017-Nov-09 03:59S 29°52' E 031°02'0 0.0
2017-Nov-09 03:29S 29°52' E 031°02'0 0.0
2017-Nov-09 02:59S 29°52' E 031°02'0 0.0
2017-Nov-09 02:29S 29°52' E 031°02'0 0.0
2017-Nov-09 01:59S 29°52' E 031°02'0 0.0
2017-Nov-09 01:29S 29°52' E 031°02'0 0.0
2017-Nov-09 00:56S 29°52' E 031°02'0 0.0
2017-Nov-09 00:29S 29°52' E 031°02'0 0.0
2017-Nov-08 23:59S 29°52' E 031°02'0 0.0
2017-Nov-08 23:29S 29°52' E 031°02'0 0.0
2017-Nov-08 22:59S 29°52' E 031°02'0 0.0
2017-Nov-08 22:29S 29°52' E 031°02'0 0.0
2017-Nov-08 21:59S 29°52' E 031°02'0 0.0
2017-Nov-08 21:29S 29°52' E 031°02'0 0.0
2017-Nov-08 20:59S 29°52' E 031°02'0 0.0
2017-Nov-08 20:29S 29°52' E 031°02'0 0.0
2017-Nov-08 19:59S 29°52' E 031°02'0 0.0
2017-Nov-08 19:29S 29°52' E 031°02'0 0.0
2017-Nov-08 18:59S 29°52' E 031°02'0 0.0
2017-Nov-08 18:29S 29°52' E 031°02'0 0.0
2017-Nov-08 17:59S 29°52' E 031°02'0 0.0
2017-Nov-08 17:29S 29°52' E 031°02'0 0.0
2017-Nov-08 16:59S 29°52' E 031°02'0 0.0
2017-Nov-08 16:29S 29°52' E 031°02'0 0.0
2017-Nov-08 15:59S 29°52' E 031°02'0 0.0
2017-Nov-08 15:29S 29°52' E 031°02'0 0.0
2017-Nov-08 14:59S 29°52' E 031°02'0 0.0
2017-Nov-08 14:29S 29°52' E 031°02'0 0.0
2017-Nov-08 13:59S 29°52' E 031°02'0 0.0
2017-Nov-08 13:29S 29°52' E 031°02'0 0.0
2017-Nov-08 12:59S 29°52' E 031°02'0 0.0
2017-Nov-08 12:29S 29°52' E 031°02'0 0.0
2017-Nov-08 11:59S 29°52' E 031°02'0 0.0
2017-Nov-08 11:29S 29°52' E 031°02'0 0.0
2017-Nov-08 10:59S 29°52' E 031°02'0 0.0
2017-Nov-08 10:29S 29°52' E 031°02'0 0.0
2017-Nov-08 09:59S 29°52' E 031°02'0 0.0
2017-Nov-08 09:29S 29°52' E 031°02'0 0.0
2017-Nov-08 08:59S 29°52' E 031°02'0 0.0
2017-Nov-08 08:29S 29°52' E 031°02'1 2.7
2017-Nov-08 08:00S 29°53' E 031°03'4 8.1
2017-Nov-08 07:31S 29°49' E 031°06'611.5
2017-Nov-08 07:01S 29°49' E 031°12'914.1
2017-Nov-08 06:20S 29°51' E 031°23'412.5
2017-Nov-08 06:00S 29°52' E 031°28'510.9
2017-Nov-08 05:30S 29°52' E 031°34'4 8.6
2017-Nov-08 05:00S 29°52' E 031°39'4 8.5
2017-Nov-08 04:30S 29°51' E 031°44'4 8.1
2017-Nov-08 04:00S 29°50' E 031°48'4 8.0
2017-Nov-08 03:30S 29°49' E 031°52'510.3
2017-Nov-08 03:00S 29°47' E 031°58'611.9
2017-Nov-08 02:30S 29°45' E 032°05'  
Track history (hours):
 
Tides and Currents Weather Stations Pressure Air Temp Water Temp Dewpoint Dewpoint Depression Visibility Wind Speed Wind Dir Waves Ship Positions

Asian Captain

Last reported at 2017-Nov-09 17:23 UTC. Time now 2017-Nov-20 09:52 UTC.
Position S 30°22' E 030°58'.
Warning: this ship's position is 10 days out of date.

Length 229 m; draft 9.2 m.

Type: Cargo ship. MMSI: 440371000.

Date/timePositionNaut miles runAvg speedWind from/ knotsBaromVisibWave heightAir tempDewpointWater temp
2017-Nov-09 17:23S 30°22' E 030°58'719.4
2017-Nov-09 17:00S 30°16' E 031°03'917.4
2017-Nov-09 16:30S 30°08' E 031°07'816.3
2017-Nov-09 16:00S 30°00' E 031°10'714.9
2017-Nov-09 15:30S 29°53' E 031°08'5 9.1
2017-Nov-09 15:00S 29°52' E 031°03'1 2.6
2017-Nov-09 14:30S 29°52' E 031°02'0 0.0
2017-Nov-09 13:59S 29°52' E 031°02'0 0.0
2017-Nov-09 13:29S 29°52' E 031°02'0 0.0
2017-Nov-09 12:59S 29°52' E 031°02'0 0.0
2017-Nov-09 12:29S 29°52' E 031°02'0 0.0
2017-Nov-09 11:59S 29°52' E 031°02'0 0.0
2017-Nov-09 11:29S 29°52' E 031°02'0 0.0
2017-Nov-09 10:59S 29°52' E 031°02'0 0.0
2017-Nov-09 10:29S 29°52' E 031°02'0 0.0
2017-Nov-09 09:59S 29°52' E 031°02'0 0.0
2017-Nov-09 09:29S 29°52' E 031°02'0 0.0
2017-Nov-09 08:59S 29°52' E 031°02'0 0.0
2017-Nov-09 08:29S 29°52' E 031°02'0 0.0
2017-Nov-09 07:59S 29°52' E 031°02'0 0.0
2017-Nov-09 07:29S 29°52' E 031°02'0 0.0
2017-Nov-09 06:59S 29°52' E 031°02'0 0.0
2017-Nov-09 06:20S 29°52' E 031°02'0 0.0
2017-Nov-09 05:59S 29°52' E 031°02'0 0.0
2017-Nov-09 05:26S 29°52' E 031°02'0 0.0
2017-Nov-09 04:59S 29°52' E 031°02'0 0.0
2017-Nov-09 04:29S 29°52' E 031°02'0 0.0
2017-Nov-09 03:59S 29°52' E 031°02'0 0.0
2017-Nov-09 03:29S 29°52' E 031°02'0 0.0
2017-Nov-09 02:59S 29°52' E 031°02'0 0.0
2017-Nov-09 02:29S 29°52' E 031°02'0 0.0
2017-Nov-09 01:59S 29°52' E 031°02'0 0.0
2017-Nov-09 01:29S 29°52' E 031°02'0 0.0
2017-Nov-09 00:56S 29°52' E 031°02'0 0.0
2017-Nov-09 00:29S 29°52' E 031°02'0 0.0
2017-Nov-08 23:59S 29°52' E 031°02'0 0.0
2017-Nov-08 23:29S 29°52' E 031°02'0 0.0
2017-Nov-08 22:59S 29°52' E 031°02'0 0.0
2017-Nov-08 22:29S 29°52' E 031°02'0 0.0
2017-Nov-08 21:59S 29°52' E 031°02'0 0.0
2017-Nov-08 21:29S 29°52' E 031°02'0 0.0
2017-Nov-08 20:59S 29°52' E 031°02'0 0.0
2017-Nov-08 20:29S 29°52' E 031°02'0 0.0
2017-Nov-08 19:59S 29°52' E 031°02'0 0.0
2017-Nov-08 19:29S 29°52' E 031°02'0 0.0
2017-Nov-08 18:59S 29°52' E 031°02'0 0.0
2017-Nov-08 18:29S 29°52' E 031°02'0 0.0
2017-Nov-08 17:59S 29°52' E 031°02'0 0.0
2017-Nov-08 17:29S 29°52' E 031°02'0 0.0
2017-Nov-08 16:59S 29°52' E 031°02'0 0.0
2017-Nov-08 16:29S 29°52' E 031°02'0 0.0
2017-Nov-08 15:59S 29°52' E 031°02'0 0.0
2017-Nov-08 15:29S 29°52' E 031°02'0 0.0
2017-Nov-08 14:59S 29°52' E 031°02'0 0.0
2017-Nov-08 14:29S 29°52' E 031°02'0 0.0
2017-Nov-08 13:59S 29°52' E 031°02'0 0.0
2017-Nov-08 13:29S 29°52' E 031°02'0 0.0
2017-Nov-08 12:59S 29°52' E 031°02'0 0.0
2017-Nov-08 12:29S 29°52' E 031°02'0 0.0
2017-Nov-08 11:59S 29°52' E 031°02'0 0.0
2017-Nov-08 11:29S 29°52' E 031°02'0 0.0
2017-Nov-08 10:59S 29°52' E 031°02'0 0.0
2017-Nov-08 10:29S 29°52' E 031°02'0 0.0
2017-Nov-08 09:59S 29°52' E 031°02'0 0.0
2017-Nov-08 09:29S 29°52' E 031°02'0 0.0
2017-Nov-08 08:59S 29°52' E 031°02'0 0.0
2017-Nov-08 08:29S 29°52' E 031°02'1 2.7
2017-Nov-08 08:00S 29°53' E 031°03'4 8.1
2017-Nov-08 07:31S 29°49' E 031°06'611.5
2017-Nov-08 07:01S 29°49' E 031°12'914.1
2017-Nov-08 06:20S 29°51' E 031°23'412.5
2017-Nov-08 06:00S 29°52' E 031°28'510.9
2017-Nov-08 05:30S 29°52' E 031°34'4 8.6
2017-Nov-08 05:00S 29°52' E 031°39'4 8.5
2017-Nov-08 04:30S 29°51' E 031°44'4 8.1
2017-Nov-08 04:00S 29°50' E 031°48'4 8.0
2017-Nov-08 03:30S 29°49' E 031°52'510.3
2017-Nov-08 03:00S 29°47' E 031°58'611.9
2017-Nov-08 02:30S 29°45' E 032°05'  

Dump ship's entire track history